createdAt,value
2023-03-03T00:00:07.707Z,7.30
2023-03-03T00:02:40.617Z,7.10
2023-03-03T00:05:07.846Z,6.90
2023-03-03T00:07:34.768Z,6.80
2023-03-03T00:10:01.929Z,6.60
2023-03-03T00:12:30.902Z,6.60
2023-03-03T00:14:58.423Z,6.50
2023-03-03T00:17:28.128Z,6.40
2023-03-03T00:19:55.999Z,6.40
2023-03-03T00:22:28.715Z,6.30
2023-03-03T00:24:55.651Z,6.30
2023-03-03T00:27:39.472Z,6.40
2023-03-03T00:30:18.114Z,6.50
2023-03-03T00:32:53.220Z,6.50
2023-03-03T00:35:30.531Z,6.60
2023-03-03T00:38:10.133Z,6.70
2023-03-03T00:40:40.462Z,6.70
2023-03-03T00:43:27.978Z,6.70
2023-03-03T00:45:58.958Z,6.70
2023-03-03T00:48:30.419Z,6.80
2023-03-03T00:51:02.262Z,6.90
2023-03-03T00:53:30.119Z,6.90
2023-03-03T00:55:58.052Z,7.00
2023-03-03T00:58:27.593Z,7.00
2023-03-03T01:00:57.705Z,7.10
2023-03-03T01:03:32.893Z,7.20
2023-03-03T01:06:00.127Z,7.20
2023-03-03T01:08:27.077Z,7.20
2023-03-03T01:11:05.448Z,7.10
2023-03-03T01:13:36.180Z,7.10
2023-03-03T01:16:05.294Z,7.00
2023-03-03T01:18:32.865Z,7.10
2023-03-03T01:21:00.267Z,7.20
2023-03-03T01:23:27.234Z,7.10
2023-03-03T01:25:54.392Z,7.10
2023-03-03T01:28:21.490Z,7.10
2023-03-03T01:30:48.511Z,7.10
2023-03-03T01:33:15.569Z,7.00
2023-03-03T01:35:48.855Z,7.00
2023-03-03T01:38:16.665Z,7.00
2023-03-03T01:40:43.618Z,7.10
2023-03-03T01:43:15.500Z,7.10
2023-03-03T01:45:42.252Z,7.10
2023-03-03T01:48:32.741Z,7.00
2023-03-03T01:51:15.037Z,7.00
2023-03-03T01:53:46.030Z,7.00
2023-03-03T01:56:13.034Z,7.00
2023-03-03T01:58:50.944Z,7.00
2023-03-03T02:01:23.142Z,7.00
2023-03-03T02:03:51.674Z,7.00
2023-03-03T02:06:22.822Z,7.00
2023-03-03T02:09:17.893Z,7.00
2023-03-03T02:11:45.708Z,7.00
2023-03-03T02:14:13.857Z,7.00
2023-03-03T02:16:43.450Z,7.00
2023-03-03T02:19:22.239Z,7.00
2023-03-03T02:21:52.349Z,7.00
2023-03-03T02:24:28.874Z,7.00
2023-03-03T02:26:56.350Z,7.00
2023-03-03T02:29:23.250Z,7.00
2023-03-03T02:31:50.691Z,7.00
2023-03-03T02:34:18.204Z,7.00
2023-03-03T02:36:45.180Z,6.90
2023-03-03T02:39:14.760Z,6.90
2023-03-03T02:41:59.253Z,6.90
2023-03-03T02:44:34.270Z,6.90
2023-03-03T02:47:01.660Z,6.90
2023-03-03T02:49:34.964Z,6.80
2023-03-03T02:52:05.789Z,6.80
2023-03-03T02:54:34.184Z,6.80
2023-03-03T02:57:04.275Z,6.90
2023-03-03T02:59:31.857Z,6.90
2023-03-03T03:02:07.389Z,6.80
2023-03-03T03:04:35.178Z,6.90
2023-03-03T03:07:02.191Z,6.90
2023-03-03T03:09:31.250Z,6.90
2023-03-03T03:12:02.613Z,6.90
2023-03-03T03:14:33.252Z,6.90
2023-03-03T03:17:00.435Z,6.80
2023-03-03T03:19:29.372Z,6.90
2023-03-03T03:21:59.625Z,6.90
2023-03-03T03:24:27.393Z,6.80
2023-03-03T03:27:00.233Z,6.80
2023-03-03T03:29:28.305Z,6.70
2023-03-03T03:31:55.895Z,6.70
2023-03-03T03:34:22.841Z,6.70
2023-03-03T03:36:52.150Z,6.70
2023-03-03T03:39:20.744Z,6.70
2023-03-03T03:41:50.178Z,6.60
2023-03-03T03:44:17.065Z,6.60
2023-03-03T03:46:44.127Z,6.60
2023-03-03T03:49:11.582Z,6.60
2023-03-03T03:51:41.378Z,6.60
2023-03-03T03:54:10.222Z,6.60
2023-03-03T03:56:37.980Z,6.60
2023-03-03T03:59:07.123Z,6.70
2023-03-03T04:01:36.421Z,6.60
2023-03-03T04:04:05.016Z,6.70
2023-03-03T04:06:32.470Z,6.70
2023-03-03T04:09:01.563Z,6.60
2023-03-03T04:11:30.838Z,6.60
2023-03-03T04:13:58.312Z,6.60
2023-03-03T04:16:26.513Z,6.60
2023-03-03T04:18:53.420Z,6.60
2023-03-03T04:21:24.019Z,6.60
2023-03-03T04:23:55.796Z,6.60
2023-03-03T04:26:22.955Z,6.70
2023-03-03T04:28:49.852Z,6.70
2023-03-03T04:31:20.876Z,6.60
2023-03-03T04:33:48.866Z,6.60
2023-03-03T04:36:21.765Z,6.60
2023-03-03T04:38:49.274Z,6.60
2023-03-03T04:41:16.965Z,6.60
2023-03-03T04:43:45.081Z,6.60
2023-03-03T04:46:14.040Z,6.60
2023-03-03T04:48:41.350Z,6.40
2023-03-03T04:51:10.057Z,6.00
2023-03-03T04:53:39.065Z,5.80
2023-03-03T04:56:08.535Z,5.70
2023-03-03T04:58:37.449Z,5.60
2023-03-03T05:01:04.500Z,5.50
2023-03-03T05:03:32.558Z,5.40
2023-03-03T05:06:00.194Z,5.40
2023-03-03T05:08:27.102Z,5.40
2023-03-03T05:10:55.103Z,5.30
2023-03-03T05:13:22.407Z,5.40
2023-03-03T05:15:51.264Z,5.40
2023-03-03T05:18:19.839Z,5.40
2023-03-03T05:20:49.127Z,5.40
2023-03-03T05:23:16.354Z,5.30
2023-03-03T05:25:50.392Z,5.30
2023-03-03T05:28:19.887Z,5.30
2023-03-03T05:30:47.205Z,5.40
2023-03-03T05:33:15.434Z,5.30
2023-03-03T05:35:42.703Z,5.20
2023-03-03T05:38:11.432Z,5.10
2023-03-03T05:40:38.914Z,5.00
2023-03-03T05:43:05.830Z,5.00
2023-03-03T05:45:34.602Z,5.00
2023-03-03T05:48:07.907Z,5.00
2023-03-03T05:50:34.902Z,5.00
2023-03-03T05:53:03.419Z,5.00
2023-03-03T05:55:30.413Z,5.00
2023-03-03T05:57:57.563Z,5.00
2023-03-03T06:00:27.849Z,5.00
2023-03-03T06:02:55.292Z,5.00
2023-03-03T06:05:22.343Z,4.90
2023-03-03T06:07:49.528Z,4.90
2023-03-03T06:10:16.490Z,4.90
2023-03-03T06:12:47.402Z,4.90
2023-03-03T06:15:14.824Z,5.00
2023-03-03T06:17:41.675Z,5.00
2023-03-03T06:20:09.388Z,5.00
2023-03-03T06:22:37.371Z,5.00
2023-03-03T06:25:05.378Z,5.00
2023-03-03T06:27:32.651Z,5.10
2023-03-03T06:29:59.780Z,5.20
2023-03-03T06:32:26.759Z,5.30
2023-03-03T06:34:53.764Z,5.40
2023-03-03T06:37:23.608Z,5.50
2023-03-03T06:39:52.662Z,5.60
2023-03-03T06:42:19.910Z,5.80
2023-03-03T06:44:47.421Z,6.00
2023-03-03T06:47:14.524Z,6.10
2023-03-03T06:49:41.644Z,6.30
2023-03-03T06:52:24.651Z,6.40
2023-03-03T06:54:57.726Z,6.50
2023-03-03T06:57:30.659Z,6.70
2023-03-03T07:00:22.108Z,6.80
2023-03-03T07:03:14.424Z,6.90
2023-03-03T07:05:41.389Z,7.10
2023-03-03T07:08:20.846Z,7.20
2023-03-03T07:10:48.785Z,7.40
2023-03-03T07:13:25.181Z,7.60
2023-03-03T07:15:57.362Z,7.70
2023-03-03T07:18:46.946Z,7.90
2023-03-03T07:21:18.333Z,8.00
2023-03-03T07:23:47.270Z,8.10
2023-03-03T07:26:33.213Z,8.20
2023-03-03T07:29:04.022Z,8.30
2023-03-03T07:31:44.566Z,8.40
2023-03-03T07:34:40.533Z,8.50
2023-03-03T07:37:40.632Z,8.60
2023-03-03T07:40:31.782Z,8.80
2023-03-03T07:42:59.451Z,8.70
2023-03-03T07:45:38.307Z,8.80
2023-03-03T07:48:22.578Z,8.80
2023-03-03T07:50:50.185Z,9.00
2023-03-03T07:53:26.190Z,9.10
2023-03-03T07:55:53.317Z,9.10
2023-03-03T07:58:31.789Z,9.20
2023-03-03T08:04:37.100Z,9.10
2023-03-03T08:07:11.614Z,9.10
2023-03-03T08:09:47.395Z,9.20
2023-03-03T08:12:42.042Z,9.30
2023-03-03T08:15:25.155Z,9.50
2023-03-03T08:17:54.492Z,9.60
2023-03-03T08:20:47.319Z,9.70
2023-03-03T08:23:16.767Z,9.70
2023-03-03T08:25:44.342Z,9.80
2023-03-03T08:28:12.689Z,9.80
2023-03-03T08:30:39.957Z,9.90
2023-03-03T08:33:06.844Z,9.80
2023-03-03T08:35:33.795Z,9.80
2023-03-03T08:38:00.901Z,9.80
2023-03-03T08:40:27.858Z,9.90
2023-03-03T08:42:54.791Z,9.90
2023-03-03T08:45:21.913Z,10.10
2023-03-03T08:47:48.850Z,10.20
2023-03-03T08:50:16.196Z,10.20
2023-03-03T08:52:43.520Z,10.30
2023-03-03T08:55:10.959Z,10.40
2023-03-03T08:57:39.337Z,10.50
2023-03-03T09:00:09.202Z,10.50
2023-03-03T09:02:36.245Z,10.60
2023-03-03T09:05:03.483Z,10.70
2023-03-03T09:07:30.654Z,10.80
2023-03-03T09:09:57.547Z,10.90
2023-03-03T09:12:32.527Z,11.10
2023-03-03T09:15:08.488Z,11.10
2023-03-03T09:17:37.671Z,11.30
2023-03-03T09:20:44.664Z,11.50
2023-03-03T09:23:31.575Z,11.50
2023-03-03T09:26:12.936Z,11.60
2023-03-03T09:28:39.919Z,11.50
2023-03-03T09:31:39.661Z,11.60
2023-03-03T09:34:52.864Z,11.70
2023-03-03T09:37:26.531Z,11.70
2023-03-03T09:40:00.379Z,11.60
2023-03-03T09:42:50.816Z,11.70
2023-03-03T09:45:52.751Z,11.70
2023-03-03T09:48:44.466Z,11.60
2023-03-03T09:51:17.262Z,11.50
2023-03-03T09:54:17.991Z,11.50
2023-03-03T09:57:08.583Z,11.60
2023-03-03T09:59:47.412Z,11.60
2023-03-03T10:02:46.405Z,11.70
2023-03-03T10:05:42.208Z,11.60
2023-03-03T10:08:23.998Z,11.70
2023-03-03T10:11:10.467Z,11.80
2023-03-03T10:13:50.794Z,11.90
2023-03-03T10:16:39.756Z,11.80
2023-03-03T10:19:29.124Z,11.90
2023-03-03T10:22:39.204Z,12.00
2023-03-03T10:25:15.216Z,12.10
2023-03-03T10:27:47.512Z,12.20
2023-03-03T10:30:58.217Z,12.30
2023-03-03T10:34:01.880Z,12.50
2023-03-03T10:36:59.461Z,12.60
2023-03-03T10:39:26.362Z,12.60
2023-03-03T10:42:05.392Z,12.50
2023-03-03T10:44:56.807Z,12.50
2023-03-03T10:47:44.974Z,12.50
2023-03-03T10:50:31.914Z,12.60
2023-03-03T10:53:17.056Z,12.70
2023-03-03T10:56:30.252Z,12.80
2023-03-03T10:59:27.086Z,12.80
2023-03-03T11:02:10.076Z,12.80
2023-03-03T11:04:55.592Z,12.80
2023-03-03T11:07:31.530Z,12.80
2023-03-03T11:10:43.656Z,12.70
2023-03-03T11:13:25.159Z,12.60
2023-03-03T11:16:07.732Z,12.60
2023-03-03T11:18:45.110Z,12.60
2023-03-03T11:21:45.518Z,12.60
2023-03-03T11:24:44.625Z,12.50
2023-03-03T11:27:34.763Z,12.50
2023-03-03T11:30:20.527Z,12.40
2023-03-03T11:33:00.895Z,12.50
2023-03-03T11:35:51.209Z,12.60
2023-03-03T11:39:09.055Z,12.70
2023-03-03T11:42:07.998Z,12.70
2023-03-03T11:44:56.369Z,12.80
2023-03-03T11:47:37.701Z,12.90
2023-03-03T11:50:11.064Z,12.90
2023-03-03T11:52:41.835Z,12.90
2023-03-03T11:55:17.619Z,13.00
2023-03-03T11:58:03.536Z,13.10
2023-03-03T12:00:33.500Z,13.00
2023-03-03T12:03:10.712Z,13.10
2023-03-03T12:05:53.261Z,13.20
2023-03-03T12:08:49.387Z,13.40
2023-03-03T12:11:47.842Z,13.40
2023-03-03T12:14:45.946Z,13.50
2023-03-03T12:17:20.138Z,13.50
2023-03-03T12:20:08.118Z,13.60
2023-03-03T12:22:38.790Z,13.70
2023-03-03T12:25:26.993Z,13.70
2023-03-03T12:28:01.400Z,13.70
2023-03-03T12:30:34.554Z,13.80
2023-03-03T12:33:24.319Z,13.90
2023-03-03T12:35:57.000Z,14.00
2023-03-03T12:38:29.822Z,14.30
2023-03-03T12:41:16.463Z,14.40
2023-03-03T12:44:06.814Z,14.40
2023-03-03T12:47:10.430Z,14.50
2023-03-03T12:50:08.142Z,14.30
2023-03-03T12:53:02.751Z,14.30
2023-03-03T12:55:50.897Z,14.20
2023-03-03T12:58:51.798Z,14.10
2023-03-03T13:01:36.578Z,14.00
2023-03-03T13:04:08.690Z,13.90
2023-03-03T13:07:13.685Z,13.90
2023-03-03T13:10:08.866Z,14.10
2023-03-03T13:13:08.485Z,14.20
2023-03-03T13:15:59.600Z,14.40
2023-03-03T13:18:48.889Z,14.60
2023-03-03T13:21:45.523Z,14.70
2023-03-03T13:24:26.720Z,14.90
2023-03-03T13:27:04.623Z,15.10
2023-03-03T13:29:41.346Z,15.30
2023-03-03T13:32:31.138Z,15.40
2023-03-03T13:35:04.267Z,15.30
2023-03-03T13:37:41.078Z,15.10
2023-03-03T13:40:18.394Z,15.10
2023-03-03T13:43:07.390Z,14.90
2023-03-03T13:46:00.292Z,14.90
2023-03-03T13:49:05.424Z,15.00
2023-03-03T13:51:56.060Z,15.10
2023-03-03T13:54:57.685Z,15.30
2023-03-03T13:57:51.697Z,15.40
2023-03-03T14:00:57.252Z,15.40
2023-03-03T14:03:39.643Z,15.60
2023-03-03T14:06:28.048Z,15.70
2023-03-03T14:09:15.414Z,15.50
2023-03-03T14:11:56.495Z,15.60
2023-03-03T14:14:47.927Z,15.60
2023-03-03T14:17:34.484Z,15.70
2023-03-03T14:20:25.078Z,15.70
2023-03-03T14:23:12.197Z,15.70
2023-03-03T14:26:12.587Z,15.60
2023-03-03T14:28:44.284Z,15.40
2023-03-03T14:31:25.707Z,15.20
2023-03-03T14:34:11.140Z,14.90
2023-03-03T14:36:45.618Z,14.70
2023-03-03T14:39:45.233Z,14.50
2023-03-03T14:42:36.773Z,14.50
2023-03-03T14:45:30.151Z,14.40
2023-03-03T14:47:59.798Z,14.30
2023-03-03T14:50:47.420Z,14.20
2023-03-03T14:53:35.598Z,14.20
2023-03-03T14:56:39.642Z,14.20
2023-03-03T14:59:33.406Z,14.20
2023-03-03T15:02:19.201Z,14.20
2023-03-03T15:04:50.953Z,14.20
2023-03-03T15:07:35.197Z,14.10
2023-03-03T15:10:05.615Z,14.10
2023-03-03T15:12:53.145Z,14.10
2023-03-03T15:15:25.144Z,14.10
2023-03-03T15:17:56.181Z,14.10
2023-03-03T15:20:33.489Z,14.10
2023-03-03T15:23:24.240Z,14.00
2023-03-03T15:25:59.566Z,14.00
2023-03-03T15:28:45.791Z,13.90
2023-03-03T15:31:31.058Z,14.00
2023-03-03T15:34:37.024Z,13.90
2023-03-03T15:37:25.671Z,13.80
2023-03-03T15:40:21.531Z,13.80
2023-03-03T15:43:10.458Z,13.80
2023-03-03T15:45:44.273Z,13.80
2023-03-03T15:48:46.353Z,13.70
2023-03-03T15:52:01.047Z,13.70
2023-03-03T15:54:47.255Z,13.60
2023-03-03T15:57:25.678Z,13.50
2023-03-03T16:00:22.346Z,13.50
2023-03-03T16:03:07.211Z,13.40
2023-03-03T16:05:56.574Z,13.30
2023-03-03T16:08:43.115Z,13.20
2023-03-03T16:11:37.604Z,13.10
2023-03-03T16:14:24.919Z,13.10
2023-03-03T16:16:52.329Z,13.00
2023-03-03T16:19:26.391Z,12.90
2023-03-03T16:22:24.189Z,12.90
2023-03-03T16:25:17.658Z,12.80
2023-03-03T16:27:50.842Z,12.80
2023-03-03T16:30:27.458Z,12.70
2023-03-03T16:33:18.385Z,12.50
2023-03-03T16:35:55.913Z,12.40
2023-03-03T16:38:39.654Z,12.30
2023-03-03T16:41:16.364Z,12.20
2023-03-03T16:43:55.086Z,12.10
2023-03-03T16:46:41.235Z,12.00
2023-03-03T16:49:24.305Z,11.90
2023-03-03T16:51:54.222Z,11.80
2023-03-03T16:55:09.458Z,11.80
2023-03-03T16:57:51.714Z,11.70
2023-03-03T17:00:22.699Z,11.60
2023-03-03T17:03:17.093Z,11.50
2023-03-03T17:05:53.155Z,11.40
2023-03-03T17:08:57.833Z,11.40
2023-03-03T17:11:50.905Z,11.30
2023-03-03T17:14:54.854Z,11.30
2023-03-03T17:17:36.948Z,11.20
2023-03-03T17:20:22.609Z,11.10
2023-03-03T17:23:12.394Z,11.00
2023-03-03T17:26:13.053Z,11.00
2023-03-03T17:28:51.878Z,10.90
2023-03-03T17:31:49.062Z,10.80
2023-03-03T17:34:24.168Z,10.70
2023-03-03T17:37:21.914Z,10.70
2023-03-03T17:40:09.365Z,10.60
2023-03-03T17:42:36.364Z,10.60
2023-03-03T17:45:13.479Z,10.50
2023-03-03T17:48:14.353Z,10.50
2023-03-03T17:51:03.047Z,10.50
2023-03-03T17:53:54.571Z,10.40
2023-03-03T17:56:27.762Z,10.40
2023-03-03T17:59:33.304Z,10.40
2023-03-03T18:02:03.289Z,10.40
2023-03-03T18:04:56.591Z,10.40
2023-03-03T18:07:33.782Z,10.30
2023-03-03T18:10:12.933Z,10.30
2023-03-03T18:13:13.981Z,10.30
2023-03-03T18:15:43.683Z,10.20
2023-03-03T18:18:27.079Z,10.20
2023-03-03T18:20:56.870Z,10.20
2023-03-03T18:23:31.887Z,10.20
2023-03-03T18:26:04.152Z,10.10
2023-03-03T18:28:52.060Z,10.10
2023-03-03T18:31:31.531Z,10.10
2023-03-03T18:34:21.373Z,10.00
2023-03-03T18:37:06.865Z,10.00
2023-03-03T18:39:38.825Z,10.00
2023-03-03T18:42:17.153Z,9.90
2023-03-03T18:44:47.740Z,9.90
2023-03-03T18:47:18.866Z,9.90
2023-03-03T18:49:57.608Z,9.90
2023-03-03T18:52:29.754Z,9.90
2023-03-03T18:55:09.408Z,9.90
2023-03-03T18:57:38.088Z,9.80
2023-03-03T19:00:42.580Z,9.80
2023-03-03T19:03:33.101Z,9.80
2023-03-03T19:06:02.741Z,9.80
2023-03-03T19:08:56.881Z,9.80
2023-03-03T19:11:39.599Z,9.70
2023-03-03T19:14:18.276Z,9.70
2023-03-03T19:16:45.868Z,9.70
2023-03-03T19:19:17.884Z,9.60
2023-03-03T19:21:51.230Z,9.60
2023-03-03T19:24:36.629Z,9.60
2023-03-03T19:27:14.109Z,9.60
2023-03-03T19:29:47.425Z,9.50
2023-03-03T19:32:48.560Z,9.50
2023-03-03T19:35:33.903Z,9.40
2023-03-03T19:38:23.730Z,9.40
2023-03-03T19:41:14.243Z,9.40
2023-03-03T19:44:06.145Z,9.40
2023-03-03T19:47:08.141Z,9.50
2023-03-03T19:49:56.116Z,9.40
2023-03-03T19:52:40.689Z,9.40
2023-03-03T19:55:41.016Z,9.40
2023-03-03T19:58:34.325Z,9.30
2023-03-03T20:01:12.184Z,9.30
2023-03-03T20:03:59.518Z,9.20
2023-03-03T20:06:40.671Z,9.20
2023-03-03T20:09:19.542Z,9.20
2023-03-03T20:12:19.715Z,9.20
2023-03-03T20:14:57.960Z,9.20
2023-03-03T20:17:32.514Z,9.30
2023-03-03T20:20:33.571Z,9.30
2023-03-03T20:23:19.756Z,9.30
2023-03-03T20:26:08.597Z,9.20
2023-03-03T20:28:53.988Z,9.20
2023-03-03T20:31:58.401Z,9.20
2023-03-03T20:34:53.190Z,9.10
2023-03-03T20:37:56.533Z,9.10
2023-03-03T20:40:55.358Z,9.10
2023-03-03T20:43:38.726Z,9.10
2023-03-03T20:46:30.400Z,9.00
2023-03-03T20:49:03.378Z,9.00
2023-03-03T20:51:51.386Z,9.10
2023-03-03T20:54:22.617Z,9.10
2023-03-03T20:57:33.862Z,9.10
2023-03-03T21:00:36.291Z,9.10
2023-03-03T21:03:38.954Z,9.10
2023-03-03T21:06:15.249Z,9.20
2023-03-03T21:09:13.355Z,9.20
2023-03-03T21:11:43.099Z,9.20
2023-03-03T21:14:29.500Z,9.20
2023-03-03T21:16:59.341Z,9.20
2023-03-03T21:19:31.979Z,9.10
2023-03-03T21:22:02.142Z,9.20
2023-03-03T21:24:49.200Z,9.10
2023-03-03T21:27:30.612Z,9.00
2023-03-03T21:30:29.796Z,9.00
2023-03-03T21:32:56.726Z,8.80
2023-03-03T21:35:24.846Z,8.80
2023-03-03T21:37:57.825Z,8.80
2023-03-03T21:40:30.608Z,8.80
2023-03-03T21:43:00.717Z,9.00
2023-03-03T21:45:27.736Z,9.00
2023-03-03T21:47:55.206Z,9.10
2023-03-03T21:50:23.316Z,9.10
2023-03-03T21:52:50.450Z,9.10
2023-03-03T21:55:17.692Z,9.10
2023-03-03T21:57:44.856Z,9.00
2023-03-03T22:00:12.211Z,9.10
2023-03-03T22:02:41.431Z,9.10
2023-03-03T22:05:11.754Z,9.10
2023-03-03T22:07:38.594Z,9.10
2023-03-03T22:10:07.522Z,9.10
2023-03-03T22:12:34.888Z,9.10
2023-03-03T22:15:01.882Z,9.10
2023-03-03T22:17:28.820Z,9.10
2023-03-03T22:19:56.179Z,9.10
2023-03-03T22:22:23.580Z,9.10
2023-03-03T22:24:50.613Z,9.10
2023-03-03T22:27:17.538Z,9.10
2023-03-03T22:29:44.380Z,9.10
2023-03-03T22:32:11.316Z,9.10
2023-03-03T22:34:38.314Z,9.10
2023-03-03T22:37:05.193Z,9.00
2023-03-03T22:39:32.138Z,9.00
2023-03-03T22:41:58.991Z,9.10
2023-03-03T22:44:26.072Z,9.10
2023-03-03T22:46:53.006Z,9.10
2023-03-03T22:49:19.889Z,9.10
2023-03-03T22:51:46.724Z,9.10
2023-03-03T22:54:16.083Z,9.10
2023-03-03T22:56:43.059Z,9.10
2023-03-03T22:59:09.964Z,9.00
2023-03-03T23:01:36.926Z,9.00
2023-03-03T23:04:03.966Z,9.00
2023-03-03T23:06:30.848Z,9.00
2023-03-03T23:08:57.911Z,9.00
2023-03-03T23:11:25.322Z,8.90
2023-03-03T23:13:52.251Z,8.90
2023-03-03T23:16:19.399Z,9.00
2023-03-03T23:18:46.498Z,8.90
2023-03-03T23:21:13.867Z,8.90
2023-03-03T23:23:42.217Z,9.00
2023-03-03T23:26:09.138Z,8.90
2023-03-03T23:28:36.505Z,9.00
2023-03-03T23:31:03.572Z,8.90
2023-03-03T23:33:30.846Z,8.90
2023-03-03T23:35:57.824Z,8.80
2023-03-03T23:38:24.784Z,8.80
2023-03-03T23:40:51.867Z,8.80
2023-03-03T23:43:18.899Z,8.80
2023-03-03T23:45:46.105Z,8.80
2023-03-03T23:48:13.866Z,8.80
2023-03-03T23:50:40.832Z,8.80
2023-03-03T23:53:08.656Z,8.80
2023-03-03T23:55:36.308Z,8.70
2023-03-03T23:58:04.031Z,8.70
